Time;durP1;ratioP1;P1;durP2;ratioP2;P2;SDS_P1;SDS_P2;PMS_P1;PMS_P2;Temp;Humidity;BMP_temperature;BMP_pressure;BME280_temperature;BME280_humidity;BME280_pressure;Samples;Min_cycle;Max_cycle;Signal;HPM_P1;HPM_P2
2023/09/02 00:02:14;;;;;;;7.15;3.67;;;;;;;;;;4966898;28;20034;-79
2023/09/02 00:04:39;;;;;;;5.78;2.58;;;;;;;;;;4974965;28;20038;-80
2023/09/02 00:07:04;;;;;;;4.30;2.00;;;;;;;;;;4971000;28;20027;-80
2023/09/02 00:09:29;;;;;;;3.00;1.10;;;;;;;;;;4969256;28;20034;-80
2023/09/02 00:11:54;;;;;;;3.10;1.80;;;;;;;;;;4970855;28;20035;-80
2023/09/02 00:14:19;;;;;;;7.50;4.40;;;;;;;;;;4969406;28;20036;-79
2023/09/02 00:16:45;;;;;;;13.95;4.00;;;;;;;;;;4970484;28;20057;-80
2023/09/02 00:19:10;;;;;;;25.23;4.93;;;;;;;;;;4971447;28;20034;-80
2023/09/02 00:21:35;;;;;;;26.75;4.15;;;;;;;;;;4969277;28;20150;-80
2023/09/02 00:24:02;;;;;;;11.57;2.70;;;;;;;;;;4969824;28;20063;-80
2023/09/02 00:26:27;;;;;;;26.15;3.10;;;;;;;;;;4974567;28;20517;-80
2023/09/02 00:28:53;;;;;;;5.93;2.47;;;;;;;;;;4969510;28;20023;-80
2023/09/02 00:31:18;;;;;;;3.42;2.17;;;;;;;;;;4969192;28;20023;-79
2023/09/02 00:33:43;;;;;;;9.18;3.35;;;;;;;;;;4977116;28;20085;-80
2023/09/02 00:36:08;;;;;;;3.80;2.10;;;;;;;;;;4973697;28;20043;-79
2023/09/02 00:38:33;;;;;;;5.28;2.88;;;;;;;;;;4967746;28;20043;-80
2023/09/02 00:41:00;;;;;;;5.88;2.80;;;;;;;;;;4969791;28;20171;-80
2023/09/02 00:43:29;;;;;;;6.03;4.13;;;;;;;;;;4971933;28;20114;-80
2023/09/02 00:45:54;;;;;;;6.28;3.50;;;;;;;;;;4987563;28;20027;-81
2023/09/02 00:48:20;;;;;;;5.07;3.55;;;;;;;;;;4985840;28;20050;-81
2023/09/02 00:50:45;;;;;;;6.15;3.90;;;;;;;;;;4982467;28;20024;-81
2023/09/02 00:53:11;;;;;;;5.95;3.20;;;;;;;;;;4985720;28;20037;-81
2023/09/02 00:55:36;;;;;;;6.68;5.00;;;;;;;;;;4974089;29;20098;-81
2023/09/02 00:58:01;;;;;;;6.40;4.60;;;;;;;;;;4986732;28;20034;-81
2023/09/02 01:00:27;;;;;;;7.45;3.97;;;;;;;;;;4983518;28;20053;-81
2023/09/02 01:02:52;;;;;;;15.60;5.43;;;;;;;;;;4986274;28;20034;-81
2023/09/02 01:05:19;;;;;;;7.93;3.38;;;;;;;;;;4980959;28;20019;-80
2023/09/02 01:07:45;;;;;;;8.27;3.72;;;;;;;;;;4984880;28;20063;-80
2023/09/02 01:10:10;;;;;;;15.95;4.05;;;;;;;;;;4982246;28;20027;-80
2023/09/02 01:12:35;;;;;;;50.35;5.22;;;;;;;;;;4983349;28;20046;-80
2023/09/02 01:15:01;;;;;;;34.97;5.03;;;;;;;;;;4980768;28;20497;-80
2023/09/02 01:17:26;;;;;;;35.55;8.02;;;;;;;;;;4967571;28;20046;-80
2023/09/02 01:19:52;;;;;;;15.00;3.83;;;;;;;;;;4969315;28;20035;-80
2023/09/02 01:22:26;;;;;;;76.32;8.70;;;;;;;;;;4967661;28;20094;-79
2023/09/02 01:25:11;;;;;;;59.90;7.85;;;;;;;;;;4974288;28;20043;-80
2023/09/02 01:27:38;;;;;;;33.90;7.45;;;;;;;;;;4985595;28;20545;-81
2023/09/02 01:30:15;;;;;;;21.20;6.20;;;;;;;;;;4969132;28;20023;-80
2023/09/02 01:32:42;;;;;;;29.60;5.38;;;;;;;;;;4975468;28;20027;-81
2023/09/02 01:35:08;;;;;;;77.72;9.18;;;;;;;;;;4987795;28;20041;-80
2023/09/02 01:37:34;;;;;;;22.10;6.22;;;;;;;;;;4974231;28;20043;-81
2023/09/02 01:40:01;;;;;;;59.53;7.85;;;;;;;;;;4969571;28;20030;-80
2023/09/02 01:42:26;;;;;;;23.33;6.47;;;;;;;;;;4964578;28;20074;-80
2023/09/02 01:44:52;;;;;;;26.80;5.13;;;;;;;;;;4970093;28;20043;-80
2023/09/02 01:47:17;;;;;;;89.20;8.88;;;;;;;;;;4967861;28;20454;-80
2023/09/02 01:49:44;;;;;;;51.47;7.32;;;;;;;;;;4972542;28;20038;-81
2023/09/02 01:52:10;;;;;;;31.20;7.25;;;;;;;;;;4965913;28;20028;-81
2023/09/02 01:54:36;;;;;;;14.63;6.72;;;;;;;;;;4969742;28;20022;-81
2023/09/02 01:57:01;;;;;;;32.53;6.70;;;;;;;;;;4969798;28;20511;-81
2023/09/02 01:59:26;;;;;;;110.03;7.47;;;;;;;;;;4968472;28;20058;-81
2023/09/02 02:01:52;;;;;;;21.05;4.82;;;;;;;;;;4971057;28;20026;-81
2023/09/02 02:04:20;;;;;;;45.17;6.13;;;;;;;;;;4968796;28;20049;-82
2023/09/02 02:06:46;;;;;;;88.13;6.32;;;;;;;;;;4968141;28;20062;-81
2023/09/02 02:09:15;;;;;;;80.82;6.25;;;;;;;;;;4969649;28;20027;-81
2023/09/02 02:11:40;;;;;;;35.95;5.00;;;;;;;;;;4968248;28;20053;-81
2023/09/02 02:14:06;;;;;;;61.97;6.90;;;;;;;;;;4969063;28;20031;-82
2023/09/02 02:16:31;;;;;;;34.35;6.18;;;;;;;;;;4968249;28;20038;-81
2023/09/02 02:18:57;;;;;;;37.15;6.57;;;;;;;;;;4966659;28;20508;-81
2023/09/02 02:21:23;;;;;;;22.73;6.32;;;;;;;;;;4966700;28;20031;-82
2023/09/02 02:23:50;;;;;;;38.45;5.97;;;;;;;;;;4986455;28;20034;-81
2023/09/02 02:26:15;;;;;;;12.98;5.15;;;;;;;;;;4966548;28;20023;-82
2023/09/02 02:28:41;;;;;;;41.53;5.88;;;;;;;;;;4985482;28;20046;-82
2023/09/02 02:31:07;;;;;;;39.45;6.93;;;;;;;;;;4970173;28;20023;-81
2023/09/02 02:33:32;;;;;;;34.05;6.28;;;;;;;;;;4956944;28;20120;-81
2023/09/02 02:35:57;;;;;;;36.78;6.53;;;;;;;;;;4968153;28;20054;-81
2023/09/02 02:38:22;;;;;;;21.77;6.45;;;;;;;;;;4966610;28;20035;-81
2023/09/02 02:40:48;;;;;;;25.27;6.20;;;;;;;;;;4972178;28;20038;-82
2023/09/02 02:43:13;;;;;;;11.43;5.13;;;;;;;;;;4966391;28;20066;-82
2023/09/02 02:45:38;;;;;;;52.08;7.25;;;;;;;;;;4973350;28;20071;-81
2023/09/02 02:48:04;;;;;;;16.67;5.75;;;;;;;;;;4965821;28;20034;-82
2023/09/02 02:50:29;;;;;;;27.13;5.38;;;;;;;;;;4967898;28;20031;-81
2023/09/02 02:52:55;;;;;;;17.05;6.00;;;;;;;;;;4964358;28;20035;-80
2023/09/02 02:55:20;;;;;;;48.17;5.93;;;;;;;;;;4968870;28;20070;-81
2023/09/02 02:57:45;;;;;;;15.15;5.50;;;;;;;;;;4964343;28;20090;-79
2023/09/02 03:00:11;;;;;;;22.83;6.80;;;;;;;;;;4967131;28;20039;-79
2023/09/02 03:02:37;;;;;;;27.90;6.45;;;;;;;;;;4967860;28;20027;-79
2023/09/02 03:05:03;;;;;;;73.65;8.15;;;;;;;;;;4964961;28;20035;-80
2023/09/02 03:07:29;;;;;;;51.13;6.70;;;;;;;;;;4966170;28;20474;-77
2023/09/02 03:09:54;;;;;;;12.45;5.40;;;;;;;;;;4973687;28;20050;-79
2023/09/02 03:12:19;;;;;;;35.10;6.20;;;;;;;;;;4970694;28;20379;-79
2023/09/02 03:14:48;;;;;;;55.90;6.45;;;;;;;;;;4965194;28;20049;-79
2023/09/02 03:17:20;;;;;;;50.90;6.32;;;;;;;;;;4955515;28;20062;-80
2023/09/02 03:19:46;;;;;;;22.15;6.30;;;;;;;;;;4959408;28;20034;-80
2023/09/02 03:22:12;;;;;;;56.20;6.28;;;;;;;;;;4966588;28;20082;-80
2023/09/02 03:24:41;;;;;;;17.27;6.35;;;;;;;;;;4970291;28;20095;-79
2023/09/02 03:27:07;;;;;;;18.65;7.18;;;;;;;;;;4976038;28;20035;-79
2023/09/02 03:29:33;;;;;;;32.13;6.40;;;;;;;;;;4964295;28;20031;-79
2023/09/02 03:32:00;;;;;;;15.95;6.40;;;;;;;;;;4968629;28;20560;-79
2023/09/02 03:34:26;;;;;;;35.33;6.43;;;;;;;;;;4968866;28;20026;-79
2023/09/02 03:36:52;;;;;;;15.70;4.93;;;;;;;;;;4980045;28;20029;-78
2023/09/02 03:39:17;;;;;;;27.33;5.60;;;;;;;;;;4968191;28;20023;-79
2023/09/02 03:41:44;;;;;;;51.65;6.18;;;;;;;;;;4967189;28;20037;-79
2023/09/02 03:44:09;;;;;;;30.67;4.85;;;;;;;;;;4964298;28;20105;-79
2023/09/02 03:46:35;;;;;;;52.38;5.80;;;;;;;;;;4969191;28;20031;-78
2023/09/02 03:49:01;;;;;;;44.83;6.68;;;;;;;;;;4961992;28;20296;-79
2023/09/02 03:51:27;;;;;;;14.20;5.40;;;;;;;;;;4965851;28;20121;-79
2023/09/02 03:53:56;;;;;;;14.68;7.30;;;;;;;;;;4966815;28;20505;-78
2023/09/02 03:56:21;;;;;;;60.63;6.68;;;;;;;;;;4964408;28;20154;-78
2023/09/02 03:58:46;;;;;;;47.47;6.00;;;;;;;;;;4965326;28;20035;-79
2023/09/02 04:01:13;;;;;;;34.13;5.50;;;;;;;;;;4965215;28;20089;-79
2023/09/02 04:03:38;;;;;;;12.85;5.72;;;;;;;;;;4967650;28;20031;-79
2023/09/02 04:06:07;;;;;;;31.33;6.18;;;;;;;;;;4967531;28;20030;-79
2023/09/02 04:08:36;;;;;;;30.30;6.00;;;;;;;;;;4965100;28;20031;-79
2023/09/02 04:11:02;;;;;;;44.13;6.80;;;;;;;;;;4965590;28;20035;-79
2023/09/02 04:13:29;;;;;;;33.92;7.57;;;;;;;;;;4963609;28;20020;-79
2023/09/02 04:15:56;;;;;;;22.67;7.22;;;;;;;;;;4967871;28;20034;-79
2023/09/02 04:18:23;;;;;;;20.52;7.20;;;;;;;;;;4961723;28;20039;-78
2023/09/02 04:20:49;;;;;;;21.48;6.43;;;;;;;;;;4965035;28;20030;-79
2023/09/02 04:23:15;;;;;;;28.80;8.00;;;;;;;;;;4966479;28;20035;-79
2023/09/02 04:25:59;;;;;;;28.20;6.75;;;;;;;;;;4952685;28;20054;-79
2023/09/02 04:28:24;;;;;;;12.00;6.90;;;;;;;;;;4969007;28;20032;-79
2023/09/02 04:30:56;;;;;;;29.60;7.63;;;;;;;;;;4974121;28;20027;-79
2023/09/02 04:33:22;;;;;;;20.38;7.90;;;;;;;;;;4963441;28;20082;-79
2023/09/02 04:35:47;;;;;;;11.82;6.85;;;;;;;;;;4967403;28;20118;-79
2023/09/02 04:38:14;;;;;;;20.00;8.98;;;;;;;;;;4968053;28;20066;-79
2023/09/02 04:40:43;;;;;;;34.17;9.30;;;;;;;;;;4968847;28;20051;-79
2023/09/02 04:43:09;;;;;;;12.60;7.35;;;;;;;;;;4964145;28;20382;-79
2023/09/02 04:45:35;;;;;;;16.23;7.30;;;;;;;;;;4963399;28;20077;-79
2023/09/02 04:48:03;;;;;;;15.27;7.57;;;;;;;;;;4966119;28;20047;-79
2023/09/02 04:50:30;;;;;;;12.07;7.70;;;;;;;;;;4965856;28;20027;-80
2023/09/02 04:52:57;;;;;;;13.23;6.78;;;;;;;;;;4968461;28;20024;-79
2023/09/02 04:55:24;;;;;;;14.73;7.00;;;;;;;;;;4968399;28;20031;-79
2023/09/02 04:57:51;;;;;;;17.50;7.70;;;;;;;;;;4969343;28;20054;-79
2023/09/02 05:00:16;;;;;;;15.55;8.43;;;;;;;;;;4971294;28;20689;-82
2023/09/02 05:02:42;;;;;;;42.70;8.55;;;;;;;;;;4967214;28;20082;-81
2023/09/02 05:05:07;;;;;;;36.97;7.70;;;;;;;;;;4953822;28;20048;-80
2023/09/02 05:07:33;;;;;;;22.05;8.20;;;;;;;;;;4966694;28;20757;-80
2023/09/02 05:09:58;;;;;;;15.68;7.05;;;;;;;;;;4970698;28;20082;-79
2023/09/02 05:12:24;;;;;;;19.70;7.65;;;;;;;;;;4968216;28;20023;-79
2023/09/02 05:14:49;;;;;;;29.92;8.30;;;;;;;;;;4958626;29;20028;-79
2023/09/02 05:17:15;;;;;;;75.65;11.02;;;;;;;;;;4971519;28;20027;-79
2023/09/02 05:19:40;;;;;;;41.45;9.00;;;;;;;;;;4973436;28;20035;-79
2023/09/02 05:22:06;;;;;;;44.22;8.98;;;;;;;;;;4966402;28;20067;-79
2023/09/02 05:24:32;;;;;;;19.63;8.40;;;;;;;;;;4971239;28;20034;-80
2023/09/02 05:26:57;;;;;;;24.20;8.05;;;;;;;;;;4973705;28;20026;-79
2023/09/02 05:29:22;;;;;;;41.15;9.00;;;;;;;;;;4960417;28;20034;-79
2023/09/02 05:31:47;;;;;;;15.90;9.05;;;;;;;;;;4971096;28;20050;-78
2023/09/02 05:34:13;;;;;;;18.27;7.65;;;;;;;;;;4966992;28;20058;-79
2023/09/02 05:36:38;;;;;;;29.70;8.70;;;;;;;;;;4970930;28;20121;-79
2023/09/02 05:39:03;;;;;;;43.30;10.82;;;;;;;;;;4967078;28;20043;-80
2023/09/02 05:41:28;;;;;;;13.25;9.27;;;;;;;;;;4971233;28;20031;-79
2023/09/02 05:43:54;;;;;;;14.07;8.43;;;;;;;;;;4970604;28;20035;-79
2023/09/02 05:46:19;;;;;;;45.40;9.43;;;;;;;;;;4975160;28;20034;-79
2023/09/02 05:48:44;;;;;;;21.35;7.60;;;;;;;;;;4970447;28;20033;-79
2023/09/02 05:51:09;;;;;;;18.85;6.90;;;;;;;;;;4970596;28;20034;-79
2023/09/02 05:53:35;;;;;;;14.60;7.50;;;;;;;;;;4974982;28;20039;-79
2023/09/02 05:56:00;;;;;;;12.77;7.55;;;;;;;;;;4970689;28;20134;-80
2023/09/02 05:58:25;;;;;;;15.00;8.68;;;;;;;;;;4970070;28;20066;-80
2023/09/02 06:00:50;;;;;;;18.38;7.40;;;;;;;;;;4968314;28;20130;-81
2023/09/02 06:03:16;;;;;;;12.88;7.93;;;;;;;;;;4970537;28;20046;-82
2023/09/02 06:05:41;;;;;;;21.88;8.95;;;;;;;;;;4966586;28;20086;-81
2023/09/02 06:08:06;;;;;;;22.00;8.68;;;;;;;;;;4971889;28;20030;-81
2023/09/02 06:10:31;;;;;;;10.88;7.38;;;;;;;;;;4968561;28;20023;-81
2023/09/02 06:12:56;;;;;;;10.73;7.00;;;;;;;;;;4968313;28;20076;-78
2023/09/02 06:15:22;;;;;;;15.27;6.75;;;;;;;;;;4971951;28;20398;-81
2023/09/02 06:17:47;;;;;;;36.55;8.45;;;;;;;;;;4974458;28;20520;-81
2023/09/02 06:20:16;;;;;;;19.33;6.82;;;;;;;;;;4966795;28;20039;-81
2023/09/02 06:22:41;;;;;;;17.00;7.03;;;;;;;;;;4967913;28;20479;-81
2023/09/02 06:25:06;;;;;;;12.13;7.68;;;;;;;;;;4970221;28;20042;-81
2023/09/02 06:27:32;;;;;;;17.33;8.10;;;;;;;;;;4969267;28;20030;-81
2023/09/02 06:29:57;;;;;;;10.95;7.80;;;;;;;;;;4969335;28;20028;-81
2023/09/02 06:32:22;;;;;;;11.80;6.85;;;;;;;;;;4968038;28;20473;-82
2023/09/02 06:34:47;;;;;;;8.43;5.85;;;;;;;;;;4968663;28;20038;-81
2023/09/02 06:37:12;;;;;;;8.27;6.22;;;;;;;;;;4967677;28;20039;-82
2023/09/02 06:39:38;;;;;;;9.65;6.53;;;;;;;;;;4970763;28;20042;-81
2023/09/02 06:42:03;;;;;;;7.70;6.13;;;;;;;;;;4971812;28;20050;-81
2023/09/02 06:44:32;;;;;;;7.75;5.88;;;;;;;;;;4965671;28;20118;-81
2023/09/02 06:46:57;;;;;;;8.85;6.57;;;;;;;;;;4986711;23;20035;-78
2023/09/02 06:49:22;;;;;;;12.65;7.18;;;;;;;;;;5003909;28;20084;-78
2023/09/02 06:51:48;;;;;;;10.07;7.70;;;;;;;;;;5002111;28;20038;-78
2023/09/02 06:54:13;;;;;;;7.88;6.40;;;;;;;;;;5001398;28;20054;-78
2023/09/02 06:56:38;;;;;;;7.50;6.10;;;;;;;;;;5003616;28;20025;-78
2023/09/02 06:59:03;;;;;;;8.40;6.88;;;;;;;;;;4981818;28;20027;-78
2023/09/02 07:01:28;;;;;;;10.60;7.53;;;;;;;;;;4984323;28;20058;-78
2023/09/02 07:03:55;;;;;;;8.60;6.40;;;;;;;;;;4981902;28;20038;-78
2023/09/02 07:06:20;;;;;;;7.78;6.07;;;;;;;;;;4984758;28;20042;-78
2023/09/02 07:08:46;;;;;;;6.18;5.30;;;;;;;;;;4981023;28;20050;-78
2023/09/02 07:11:11;;;;;;;6.82;5.47;;;;;;;;;;4983618;28;20026;-79
2023/09/02 07:13:37;;;;;;;7.32;6.18;;;;;;;;;;4980548;28;20114;-78
2023/09/02 07:16:03;;;;;;;7.53;6.15;;;;;;;;;;4983583;28;20121;-78
2023/09/02 07:18:28;;;;;;;7.32;5.78;;;;;;;;;;4980635;28;20027;-78
2023/09/02 07:21:00;;;;;;;7.75;6.45;;;;;;;;;;4984462;28;20042;-78
2023/09/02 07:23:26;;;;;;;7.30;6.43;;;;;;;;;;4982053;28;20034;-78
2023/09/02 07:25:51;;;;;;;7.32;6.18;;;;;;;;;;4984034;28;20031;-78
2023/09/02 07:28:16;;;;;;;7.57;6.35;;;;;;;;;;4982267;28;20030;-78
2023/09/02 07:30:42;;;;;;;8.05;7.22;;;;;;;;;;4982995;28;20023;-78
2023/09/02 07:33:07;;;;;;;7.40;6.55;;;;;;;;;;4983448;28;20042;-78
2023/09/02 07:35:36;;;;;;;6.37;5.43;;;;;;;;;;4982321;28;20061;-78
2023/09/02 07:38:02;;;;;;;6.13;4.90;;;;;;;;;;4980408;28;20277;-78
2023/09/02 07:40:27;;;;;;;5.70;4.93;;;;;;;;;;4980984;28;20100;-78
2023/09/02 07:42:52;;;;;;;5.72;4.93;;;;;;;;;;4982798;28;20030;-79
2023/09/02 07:45:17;;;;;;;5.55;4.95;;;;;;;;;;4983647;28;20424;-78
2023/09/02 07:47:42;;;;;;;8.15;6.82;;;;;;;;;;4977449;28;20038;-78
2023/09/02 07:50:08;;;;;;;5.80;4.88;;;;;;;;;;4980593;28;20035;-78
2023/09/02 07:52:33;;;;;;;5.57;4.57;;;;;;;;;;4983225;28;20053;-78
2023/09/02 07:54:58;;;;;;;5.43;4.50;;;;;;;;;;4982559;28;20030;-77
2023/09/02 07:57:23;;;;;;;6.10;4.90;;;;;;;;;;4982010;28;20035;-78
2023/09/02 07:59:49;;;;;;;5.03;3.97;;;;;;;;;;4981545;28;20333;-78
2023/09/02 08:02:14;;;;;;;5.30;4.07;;;;;;;;;;4982578;28;20278;-78
2023/09/02 08:04:39;;;;;;;6.07;4.75;;;;;;;;;;4982161;28;20336;-77
2023/09/02 08:07:04;;;;;;;6.70;5.40;;;;;;;;;;4983545;28;20058;-78
2023/09/02 08:09:29;;;;;;;5.23;4.60;;;;;;;;;;4981642;28;20046;-78
2023/09/02 08:11:55;;;;;;;6.43;5.28;;;;;;;;;;4980156;28;20265;-77
2023/09/02 08:14:20;;;;;;;7.13;4.80;;;;;;;;;;4983666;28;20476;-78
2023/09/02 08:16:45;;;;;;;7.70;6.90;;;;;;;;;;4980402;28;20369;-78
2023/09/02 08:19:10;;;;;;;8.05;5.70;;;;;;;;;;4981907;28;20278;-78
2023/09/02 08:21:35;;;;;;;7.15;6.25;;;;;;;;;;4981473;28;20516;-78
2023/09/02 08:24:01;;;;;;;7.30;5.93;;;;;;;;;;4983939;28;20405;-77
2023/09/02 08:26:26;;;;;;;8.38;7.25;;;;;;;;;;4985392;28;20765;-78
2023/09/02 08:28:51;;;;;;;8.75;7.22;;;;;;;;;;4986931;28;20073;-78
2023/09/02 08:31:20;;;;;;;8.05;6.78;;;;;;;;;;4985169;28;20030;-78
2023/09/02 08:33:45;;;;;;;7.88;6.93;;;;;;;;;;4988245;28;20022;-78
2023/09/02 08:36:14;;;;;;;10.10;8.60;;;;;;;;;;4988148;28;20493;-78
2023/09/02 08:38:39;;;;;;;9.77;8.75;;;;;;;;;;4981296;28;20486;-78
2023/09/02 08:41:05;;;;;;;9.82;8.60;;;;;;;;;;4982470;28;20033;-78
2023/09/02 08:43:31;;;;;;;9.00;7.88;;;;;;;;;;4984996;28;20050;-78
2023/09/02 08:45:59;;;;;;;11.35;9.27;;;;;;;;;;4984506;28;20041;-78
2023/09/02 08:48:25;;;;;;;10.77;9.68;;;;;;;;;;4986613;28;20046;-79
2023/09/02 08:50:51;;;;;;;10.07;8.77;;;;;;;;;;4984624;28;20033;-77
2023/09/02 08:53:16;;;;;;;9.82;8.82;;;;;;;;;;4982666;28;20035;-77
2023/09/02 08:55:42;;;;;;;9.05;7.95;;;;;;;;;;4984950;28;20027;-78
2023/09/02 08:58:08;;;;;;;9.65;7.65;;;;;;;;;;4985979;28;20065;-77
2023/09/02 09:00:34;;;;;;;7.88;7.07;;;;;;;;;;4984997;28;20031;-77
2023/09/02 09:03:01;;;;;;;8.00;7.22;;;;;;;;;;4985449;28;20065;-77
2023/09/02 09:05:26;;;;;;;9.95;9.00;;;;;;;;;;4984665;28;20046;-77
2023/09/02 09:07:52;;;;;;;9.57;8.68;;;;;;;;;;4985226;28;20034;-77
2023/09/02 09:10:18;;;;;;;9.13;8.20;;;;;;;;;;4983460;28;20149;-77
2023/09/02 09:12:47;;;;;;;9.90;8.90;;;;;;;;;;4984687;28;20075;-77
2023/09/02 09:15:12;;;;;;;8.32;7.43;;;;;;;;;;4986727;28;20026;-77
2023/09/02 09:17:38;;;;;;;7.00;6.30;;;;;;;;;;4985882;28;20404;-77
2023/09/02 09:20:04;;;;;;;8.60;7.80;;;;;;;;;;4983553;28;20118;-77
2023/09/02 09:22:29;;;;;;;7.90;6.72;;;;;;;;;;4984075;28;20041;-77
2023/09/02 09:24:54;;;;;;;7.30;6.60;;;;;;;;;;4986776;28;20117;-77
2023/09/02 09:27:20;;;;;;;7.63;6.63;;;;;;;;;;4983751;28;20274;-77
2023/09/02 09:29:45;;;;;;;7.15;6.20;;;;;;;;;;4986140;28;20106;-77
2023/09/02 09:32:12;;;;;;;7.72;6.63;;;;;;;;;;4983560;28;20598;-77
2023/09/02 09:34:38;;;;;;;6.85;6.15;;;;;;;;;;4995613;28;20107;-77
2023/09/02 09:37:04;;;;;;;9.43;7.07;;;;;;;;;;4982010;28;20465;-77
2023/09/02 09:39:37;;;;;;;8.13;6.47;;;;;;;;;;4981947;28;20029;-77
2023/09/02 09:42:03;;;;;;;6.40;5.50;;;;;;;;;;4984347;28;20488;-77
2023/09/02 09:44:28;;;;;;;6.63;5.20;;;;;;;;;;4984837;28;20111;-77
2023/09/02 09:46:53;;;;;;;5.23;3.90;;;;;;;;;;4985337;28;20496;-77
2023/09/02 09:49:24;;;;;;;6.35;5.05;;;;;;;;;;4984098;28;20282;-77
2023/09/02 09:51:59;;;;;;;6.30;4.57;;;;;;;;;;4980351;28;20030;-77
2023/09/02 09:54:37;;;;;;;5.18;3.45;;;;;;;;;;4981537;28;20054;-77
2023/09/02 09:57:02;;;;;;;4.78;4.20;;;;;;;;;;4967187;28;20504;-77
2023/09/02 09:59:27;;;;;;;4.90;3.58;;;;;;;;;;4983757;28;20117;-77
2023/09/02 10:01:52;;;;;;;4.00;3.20;;;;;;;;;;4984507;28;20042;-77
2023/09/02 10:04:18;;;;;;;3.70;3.00;;;;;;;;;;4984518;28;20125;-77
2023/09/02 10:06:45;;;;;;;5.35;3.17;;;;;;;;;;4982957;28;20057;-77
2023/09/02 10:09:10;;;;;;;3.88;2.60;;;;;;;;;;4984139;28;20370;-77
2023/09/02 10:11:36;;;;;;;3.58;2.55;;;;;;;;;;4984554;28;20033;-77
2023/09/02 10:14:02;;;;;;;4.45;3.08;;;;;;;;;;4985877;28;20514;-77
2023/09/02 10:16:28;;;;;;;3.58;2.53;;;;;;;;;;4983564;28;20035;-77
2023/09/02 10:18:53;;;;;;;4.90;2.83;;;;;;;;;;4984375;28;20527;-77
2023/09/02 10:21:20;;;;;;;4.10;3.00;;;;;;;;;;4983318;28;20030;-77
2023/09/02 10:23:52;;;;;;;3.53;2.42;;;;;;;;;;4982209;28;20381;-77
2023/09/02 10:26:39;;;;;;;3.90;2.78;;;;;;;;;;4978654;28;20081;-77
2023/09/02 10:29:07;;;;;;;3.47;2.50;;;;;;;;;;4982400;28;20031;-77
2023/09/02 10:31:37;;;;;;;4.28;3.05;;;;;;;;;;4985508;28;20092;-77
2023/09/02 10:34:27;;;;;;;3.80;2.38;;;;;;;;;;4963078;28;20043;-77
2023/09/02 10:36:57;;;;;;;3.95;2.70;;;;;;;;;;4985285;28;20485;-77
2023/09/02 10:39:45;;;;;;;3.13;2.08;;;;;;;;;;4978317;28;20391;-77
2023/09/02 10:42:11;;;;;;;3.28;1.98;;;;;;;;;;4978799;28;20049;-77
2023/09/02 10:44:37;;;;;;;4.25;2.05;;;;;;;;;;4985483;28;20052;-77
2023/09/02 10:47:02;;;;;;;5.50;2.10;;;;;;;;;;4981235;28;20533;-77
2023/09/02 10:49:27;;;;;;;3.88;2.28;;;;;;;;;;4977306;28;20414;-77
2023/09/02 10:51:53;;;;;;;4.22;3.45;;;;;;;;;;4985482;28;20022;-76
2023/09/02 10:54:18;;;;;;;3.83;2.45;;;;;;;;;;4982045;28;20572;-78
2023/09/02 10:56:44;;;;;;;4.50;2.60;;;;;;;;;;4984592;28;20022;-77
2023/09/02 10:59:09;;;;;;;3.50;2.00;;;;;;;;;;4983279;28;20352;-77
2023/09/02 11:01:44;;;;;;;3.42;1.80;;;;;;;;;;4979638;28;20050;-77
2023/09/02 11:04:09;;;;;;;3.33;2.05;;;;;;;;;;4983178;28;20395;-77
2023/09/02 11:06:35;;;;;;;3.30;2.10;;;;;;;;;;4983517;28;20030;-77
2023/09/02 11:09:00;;;;;;;3.33;2.00;;;;;;;;;;4982702;28;20512;-77
2023/09/02 11:11:45;;;;;;;4.07;2.92;;;;;;;;;;4983224;28;20493;-77
2023/09/02 11:14:10;;;;;;;3.13;2.00;;;;;;;;;;4978887;28;20129;-78
2023/09/02 11:16:38;;;;;;;4.13;2.03;;;;;;;;;;4984382;28;20177;-77
2023/09/02 11:19:08;;;;;;;5.57;3.63;;;;;;;;;;4980624;28;20109;-77
2023/09/02 11:21:37;;;;;;;4.25;2.47;;;;;;;;;;4983064;28;20057;-77
2023/09/02 11:24:18;;;;;;;3.28;2.53;;;;;;;;;;4983219;28;20031;-77
2023/09/02 11:26:51;;;;;;;3.53;2.67;;;;;;;;;;4978861;28;20052;-77
2023/09/02 11:29:20;;;;;;;3.95;2.65;;;;;;;;;;4982561;28;20035;-77
2023/09/02 11:31:54;;;;;;;4.75;2.47;;;;;;;;;;4982557;28;20093;-77
2023/09/02 11:34:19;;;;;;;3.22;1.88;;;;;;;;;;4985588;28;20042;-77
2023/09/02 11:36:45;;;;;;;3.30;1.63;;;;;;;;;;4979979;28;20105;-77
2023/09/02 11:39:10;;;;;;;3.03;1.40;;;;;;;;;;4981661;28;20046;-77
2023/09/02 11:41:35;;;;;;;2.15;1.15;;;;;;;;;;4978460;28;20043;-77
2023/09/02 11:44:08;;;;;;;1.98;1.20;;;;;;;;;;4984616;28;20561;-77
2023/09/02 11:46:36;;;;;;;2.38;1.08;;;;;;;;;;4982047;28;20071;-77
2023/09/02 11:49:02;;;;;;;2.53;1.00;;;;;;;;;;4982513;28;20048;-77
2023/09/02 11:51:28;;;;;;;1.98;1.10;;;;;;;;;;4982327;28;20070;-77
2023/09/02 11:53:54;;;;;;;2.00;1.00;;;;;;;;;;4982883;28;20035;-78
2023/09/02 11:56:19;;;;;;;2.28;1.38;;;;;;;;;;4982634;28;20054;-77
2023/09/02 11:58:45;;;;;;;2.07;1.20;;;;;;;;;;4981545;28;20498;-77
2023/09/02 12:01:10;;;;;;;4.73;1.53;;;;;;;;;;4983779;28;20269;-77
2023/09/02 12:03:35;;;;;;;2.45;1.40;;;;;;;;;;4981545;28;20282;-77
2023/09/02 12:06:01;;;;;;;2.13;1.30;;;;;;;;;;4978357;28;20274;-77
2023/09/02 12:08:29;;;;;;;4.68;1.38;;;;;;;;;;4977652;28;20278;-77
2023/09/02 12:10:54;;;;;;;1.98;1.00;;;;;;;;;;4971343;28;20379;-77
2023/09/02 12:13:19;;;;;;;1.80;1.35;;;;;;;;;;4984370;28;20034;-77
2023/09/02 12:15:49;;;;;;;2.03;1.00;;;;;;;;;;4983518;28;20128;-77
2023/09/02 12:18:15;;;;;;;2.80;1.20;;;;;;;;;;4980942;28;20064;-77
2023/09/02 12:20:40;;;;;;;2.97;1.10;;;;;;;;;;4983571;28;20045;-77
2023/09/02 12:23:05;;;;;;;1.73;1.00;;;;;;;;;;4983892;28;20050;-77
2023/09/02 12:25:33;;;;;;;1.70;1.05;;;;;;;;;;4982443;28;20113;-78
2023/09/02 12:28:12;;;;;;;1.90;0.90;;;;;;;;;;4977094;28;20058;-77
2023/09/02 12:30:38;;;;;;;1.88;1.10;;;;;;;;;;4981517;28;20031;-77
2023/09/02 12:33:04;;;;;;;2.50;1.20;;;;;;;;;;4981536;28;20375;-77
2023/09/02 12:35:29;;;;;;;2.58;1.55;;;;;;;;;;4980572;28;20035;-77
2023/09/02 12:38:01;;;;;;;1.40;0.90;;;;;;;;;;4980814;28;20045;-77
2023/09/02 12:40:27;;;;;;;2.03;1.17;;;;;;;;;;4983340;28;20749;-77
2023/09/02 12:42:55;;;;;;;3.10;1.08;;;;;;;;;;4980744;28;20098;-76
2023/09/02 12:45:30;;;;;;;2.03;1.13;;;;;;;;;;4977868;28;20062;-77
2023/09/02 12:47:57;;;;;;;2.15;1.00;;;;;;;;;;4981749;28;20035;-77
2023/09/02 12:50:23;;;;;;;2.30;1.05;;;;;;;;;;4981884;28;20019;-77
2023/09/02 12:52:53;;;;;;;1.92;1.00;;;;;;;;;;4990268;23;20067;-81
2023/09/02 12:55:20;;;;;;;1.30;0.80;;;;;;;;;;4966212;28;20062;-81
2023/09/02 12:57:45;;;;;;;3.25;1.13;;;;;;;;;;4982215;28;20039;-80
2023/09/02 13:00:11;;;;;;;1.53;0.93;;;;;;;;;;4966737;28;20456;-81
2023/09/02 13:02:36;;;;;;;2.40;0.73;;;;;;;;;;4966512;28;20721;-81
2023/09/02 13:05:01;;;;;;;1.92;1.15;;;;;;;;;;4964285;28;20092;-81
2023/09/02 13:07:28;;;;;;;1.57;1.10;;;;;;;;;;4966264;28;20035;-81
2023/09/02 13:09:53;;;;;;;1.92;1.08;;;;;;;;;;4962835;28;20302;-81
2023/09/02 13:12:18;;;;;;;1.25;0.93;;;;;;;;;;4970760;28;20030;-81
2023/09/02 13:14:44;;;;;;;1.50;0.90;;;;;;;;;;4969138;28;20494;-81
2023/09/02 13:17:11;;;;;;;2.05;1.30;;;;;;;;;;4974632;28;21046;-81
2023/09/02 13:19:36;;;;;;;2.03;0.95;;;;;;;;;;4970685;28;20556;-81
2023/09/02 13:22:02;;;;;;;2.00;1.00;;;;;;;;;;4965976;28;20039;-79
2023/09/02 13:24:27;;;;;;;1.35;0.88;;;;;;;;;;4969806;28;20059;-80
2023/09/02 13:26:53;;;;;;;1.27;0.85;;;;;;;;;;4967313;28;20035;-81
2023/09/02 13:29:19;;;;;;;1.63;1.00;;;;;;;;;;4970671;28;20027;-80
2023/09/02 13:31:45;;;;;;;1.38;0.80;;;;;;;;;;4969456;28;20520;-81
2023/09/02 13:34:27;;;;;;;1.58;0.90;;;;;;;;;;4967805;28;20114;-81
2023/09/02 13:36:54;;;;;;;1.88;0.90;;;;;;;;;;4967812;28;20474;-80
2023/09/02 13:39:19;;;;;;;2.67;1.05;;;;;;;;;;4973711;28;20035;-81
2023/09/02 13:41:45;;;;;;;2.13;1.10;;;;;;;;;;4966055;28;20566;-81
2023/09/02 13:44:10;;;;;;;1.98;1.00;;;;;;;;;;4969174;28;20380;-81
2023/09/02 13:46:36;;;;;;;2.15;1.10;;;;;;;;;;4967768;28;20114;-81
2023/09/02 13:49:01;;;;;;;2.25;1.17;;;;;;;;;;4969537;28;20034;-81
2023/09/02 13:51:27;;;;;;;1.90;1.10;;;;;;;;;;4970022;28;20038;-81
2023/09/02 13:53:54;;;;;;;3.05;1.10;;;;;;;;;;4977747;28;20761;-80
2023/09/02 13:56:19;;;;;;;2.50;1.10;;;;;;;;;;4970195;28;20038;-81
2023/09/02 13:58:46;;;;;;;2.22;1.30;;;;;;;;;;4966919;28;20398;-79
2023/09/02 14:01:12;;;;;;;2.45;1.10;;;;;;;;;;4968409;28;20038;-81
2023/09/02 14:03:38;;;;;;;1.85;0.90;;;;;;;;;;4970370;28;20026;-80
2023/09/02 14:06:03;;;;;;;1.73;1.02;;;;;;;;;;4968557;28;20038;-80
2023/09/02 14:08:35;;;;;;;2.25;1.10;;;;;;;;;;4966161;28;20035;-81
2023/09/02 14:11:01;;;;;;;2.17;1.20;;;;;;;;;;4968720;28;20041;-81
2023/09/02 14:13:35;;;;;;;2.97;1.33;;;;;;;;;;4975538;28;20115;-81
2023/09/02 14:16:00;;;;;;;1.63;0.95;;;;;;;;;;4965585;28;20063;-81
2023/09/02 14:18:25;;;;;;;2.08;1.15;;;;;;;;;;4974278;28;20030;-81
2023/09/02 14:20:50;;;;;;;2.30;1.00;;;;;;;;;;4949308;29;20032;-81
2023/09/02 14:23:16;;;;;;;3.70;1.10;;;;;;;;;;4971825;28;20638;-80
2023/09/02 14:25:41;;;;;;;3.47;1.70;;;;;;;;;;4973199;28;20290;-80
2023/09/02 14:28:06;;;;;;;1.87;1.07;;;;;;;;;;4969592;28;20464;-81
2023/09/02 14:30:32;;;;;;;2.40;0.90;;;;;;;;;;4967740;28;20029;-81
2023/09/02 14:32:57;;;;;;;2.83;1.08;;;;;;;;;;4971262;28;20338;-81
2023/09/02 14:35:22;;;;;;;2.23;1.17;;;;;;;;;;4965047;28;20035;-81